Time;durP1;ratioP1;P1;durP2;ratioP2;P2;SDS_P1;SDS_P2;PMS_P1;PMS_P2;Temp;Humidity;BMP_temperature;BMP_pressure;BME280_temperature;BME280_humidity;BME280_pressure;Samples;Min_cycle;Max_cycle;Signal;HPM_P1;HPM_P2
2021/07/15 00:01:47;;;;;;;1.35;0.30;;;19.80;75.10;;;;;;5187364;27;27364;-59
2021/07/15 00:04:32;;;;;;;2.45;1.50;;;19.80;75.40;;;;;;5190606;27;27375;-58
2021/07/15 00:07:16;;;;;;;2.15;1.02;;;19.70;75.60;;;;;;5189794;27;27468;-58
2021/07/15 00:10:04;;;;;;;1.10;0.88;;;19.70;75.30;;;;;;5189951;27;26912;-58
2021/07/15 00:12:50;;;;;;;1.88;1.10;;;19.70;75.40;;;;;;5190920;27;27456;-58
2021/07/15 00:15:37;;;;;;;1.05;0.90;;;19.70;75.90;;;;;;5188066;27;27890;-59
2021/07/15 00:18:26;;;;;;;1.30;0.95;;;19.70;75.90;;;;;;5189649;27;27571;-59
2021/07/15 00:21:13;;;;;;;2.60;0.98;;;19.70;75.70;;;;;;5190780;27;27359;-59
2021/07/15 00:23:57;;;;;;;0.80;0.52;;;19.70;75.80;;;;;;5186380;27;27429;-60
2021/07/15 00:26:42;;;;;;;2.67;1.30;;;19.60;75.70;;;;;;5190589;27;27444;-58
2021/07/15 00:29:27;;;;;;;1.38;1.27;;;19.60;76.00;;;;;;5189988;27;27417;-60
2021/07/15 00:32:12;;;;;;;1.90;0.77;;;19.60;75.80;;;;;;5190636;27;27397;-59
2021/07/15 00:34:57;;;;;;;2.03;1.13;;;19.60;75.80;;;;;;5190515;27;27390;-60
2021/07/15 00:37:42;;;;;;;2.50;1.40;;;19.60;75.90;;;;;;5190172;27;27353;-61
2021/07/15 00:40:26;;;;;;;4.20;1.17;;;19.60;75.90;;;;;;5190083;27;27521;-60
2021/07/15 00:43:11;;;;;;;5.78;0.93;;;19.60;76.00;;;;;;5188930;27;27392;-59
2021/07/15 00:45:56;;;;;;;2.35;0.60;;;19.60;75.90;;;;;;5189618;27;27391;-59
2021/07/15 00:48:41;;;;;;;1.73;0.70;;;19.60;76.00;;;;;;5185732;27;27330;-59
2021/07/15 00:51:26;;;;;;;0.82;0.65;;;19.60;76.00;;;;;;5174712;27;27378;-59
2021/07/15 00:54:11;;;;;;;1.27;0.45;;;19.60;76.40;;;;;;5189550;27;27364;-59
2021/07/15 00:56:55;;;;;;;2.95;0.40;;;19.60;76.40;;;;;;5190196;27;27338;-59
2021/07/15 00:59:39;;;;;;;1.67;0.40;;;19.60;76.60;;;;;;5173526;27;27834;-59
2021/07/15 01:02:24;;;;;;;0.70;0.30;;;19.60;76.50;;;;;;5189121;27;27423;-59
2021/07/15 01:05:10;;;;;;;0.50;0.30;;;19.60;76.50;;;;;;5185603;27;27391;-59
2021/07/15 01:07:54;;;;;;;0.40;0.30;;;19.50;76.60;;;;;;5189495;27;27383;-59
2021/07/15 01:10:54;;;;;;;0.75;0.40;;;19.50;76.60;;;;;;5188790;27;27387;-58
2021/07/15 01:13:49;;;;;;;1.50;0.30;;;19.50;76.50;;;;;;5189067;27;27425;-58
2021/07/15 01:16:52;;;;;;;1.55;0.32;;;19.50;76.60;;;;;;5189876;27;27405;-59
2021/07/15 01:19:48;;;;;;;0.15;0.10;;;19.50;77.00;;;;;;5189546;27;27415;-58
2021/07/15 01:22:51;;;;;;;1.08;0.25;;;19.50;76.70;;;;;;5188589;27;27580;-59
2021/07/15 01:26:01;;;;;;;0.22;0.20;;;19.40;76.80;;;;;;5188598;27;27544;-58
2021/07/15 01:29:13;;;;;;;0.43;0.20;;;19.40;77.00;;;;;;5189228;27;27387;-59
2021/07/15 01:31:57;;;;;;;0.22;0.10;;;19.40;77.00;;;;;;5188523;27;27475;-59
2021/07/15 01:34:42;;;;;;;0.88;0.10;;;19.40;76.90;;;;;;5189102;27;27765;-59
2021/07/15 01:37:29;;;;;;;1.02;0.20;;;19.40;76.70;;;;;;5185326;27;27459;-59
2021/07/15 01:40:15;;;;;;;0.20;0.17;;;19.40;77.20;;;;;;5173895;27;27432;-59
2021/07/15 01:43:03;;;;;;;2.65;0.43;;;19.40;77.30;;;;;;5173815;27;27416;-58
2021/07/15 01:45:48;;;;;;;1.63;0.22;;;19.30;77.40;;;;;;5173734;27;27863;-58
2021/07/15 01:48:33;;;;;;;2.30;0.20;;;19.30;77.60;;;;;;5188384;27;27480;-58
2021/07/15 01:51:17;;;;;;;1.15;0.10;;;19.30;77.80;;;;;;5189143;27;27424;-59
2021/07/15 01:54:03;;;;;;;1.15;0.17;;;19.30;77.70;;;;;;5173679;27;27425;-58
2021/07/15 01:56:48;;;;;;;0.10;0.10;;;19.30;78.10;;;;;;5189208;27;27469;-58
2021/07/15 01:59:33;;;;;;;0.45;0.10;;;19.20;77.80;;;;;;5172837;27;27588;-58
2021/07/15 02:02:18;;;;;;;2.53;0.20;;;19.20;78.10;;;;;;5184810;27;27350;-58
2021/07/15 02:05:03;;;;;;;0.77;0.10;;;19.10;78.10;;;;;;5173600;27;27558;-58
2021/07/15 02:07:48;;;;;;;0.10;0.10;;;19.10;78.10;;;;;;5169962;27;27326;-58
2021/07/15 02:10:33;;;;;;;2.20;0.30;;;19.10;77.70;;;;;;5173314;27;27405;-58
2021/07/15 02:13:18;;;;;;;0.68;0.15;;;19.10;77.70;;;;;;5188709;27;27416;-58
2021/07/15 02:16:02;;;;;;;3.42;0.43;;;19.10;78.30;;;;;;5173123;27;27491;-58
2021/07/15 02:18:47;;;;;;;4.25;0.25;;;19.10;77.80;;;;;;5188097;27;27535;-58
2021/07/15 02:21:33;;;;;;;1.17;0.20;;;19.10;78.00;;;;;;5187981;27;27593;-58
2021/07/15 02:24:21;;;;;;;1.08;0.20;;;19.10;78.40;;;;;;5188510;27;27403;-58
2021/07/15 02:27:06;;;;;;;0.15;0.05;;;19.10;78.30;;;;;;5188079;27;27314;-58
2021/07/15 02:29:51;;;;;;;0.00;0.00;;;19.10;78.10;;;;;;5158321;27;27323;-58
2021/07/15 02:32:36;;;;;;;0.43;0.20;;;19.10;78.10;;;;;;5157828;27;27405;-58
2021/07/15 02:35:21;;;;;;;0.45;0.20;;;19.10;77.90;;;;;;5187847;27;27394;-58
2021/07/15 02:38:07;;;;;;;0.00;0.00;;;19.10;78.00;;;;;;5188369;27;27383;-58
2021/07/15 02:40:52;;;;;;;0.57;0.20;;;19.10;79.00;;;;;;5169512;27;27938;-58
2021/07/15 02:43:37;;;;;;;0.57;0.10;;;19.10;78.10;;;;;;5169412;27;27370;-58
2021/07/15 02:46:21;;;;;;;0.38;0.15;;;19.10;78.10;;;;;;5188206;27;27346;-58
2021/07/15 02:49:06;;;;;;;0.30;0.30;;;19.10;78.10;;;;;;5188116;27;27333;-58
2021/07/15 02:51:50;;;;;;;0.00;0.00;;;19.10;78.30;;;;;;5187290;27;28016;-58
2021/07/15 02:54:35;;;;;;;3.45;0.10;;;19.10;78.10;;;;;;5183839;27;27396;-58
2021/07/15 02:57:35;;;;;;;0.40;0.17;;;19.10;78.20;;;;;;5168503;27;27314;-58
2021/07/15 03:00:20;;;;;;;1.02;0.17;;;19.10;78.10;;;;;;5187356;27;27403;-58
2021/07/15 03:03:16;;;;;;;0.10;0.10;;;19.10;78.10;;;;;;5188124;27;27397;-58
2021/07/15 03:06:10;;;;;;;0.20;0.20;;;19.10;78.30;;;;;;5187804;27;27440;-58
2021/07/15 03:09:00;;;;;;;0.20;0.20;;;19.10;78.30;;;;;;5187104;27;26949;-58
2021/07/15 03:11:49;;;;;;;2.00;0.17;;;19.10;78.30;;;;;;5186961;27;27309;-58
2021/07/15 03:14:37;;;;;;;0.10;0.10;;;19.10;78.40;;;;;;5183458;27;27880;-58
2021/07/15 03:17:33;;;;;;;0.65;0.35;;;19.10;78.30;;;;;;5187119;27;27382;-58
2021/07/15 03:20:27;;;;;;;1.13;0.50;;;19.10;78.40;;;;;;5187897;27;26953;-58
2021/07/15 03:23:16;;;;;;;0.60;0.20;;;19.10;78.40;;;;;;5186684;27;27397;-57
2021/07/15 03:26:01;;;;;;;0.45;0.30;;;19.00;78.40;;;;;;5169491;27;27396;-58
2021/07/15 03:28:45;;;;;;;0.20;0.20;;;19.10;78.40;;;;;;5186674;27;27498;-58
2021/07/15 03:31:30;;;;;;;3.83;0.28;;;19.10;78.50;;;;;;5172203;27;27362;-57
2021/07/15 03:34:15;;;;;;;0.28;0.10;;;19.10;78.50;;;;;;5183597;27;27371;-58
2021/07/15 03:36:59;;;;;;;2.85;0.45;;;19.10;78.50;;;;;;5172242;27;27383;-58
2021/07/15 03:39:46;;;;;;;0.17;0.10;;;19.10;78.60;;;;;;5176268;27;27384;-58
2021/07/15 03:42:31;;;;;;;0.20;0.10;;;19.10;78.70;;;;;;5190721;27;27399;-57
2021/07/15 03:45:17;;;;;;;2.13;0.32;;;19.10;78.80;;;;;;5175870;27;27314;-58
2021/07/15 03:48:01;;;;;;;1.85;0.30;;;19.10;78.80;;;;;;5190384;27;27398;-58
2021/07/15 03:50:46;;;;;;;1.00;0.25;;;19.00;78.70;;;;;;5175795;27;27383;-58
2021/07/15 03:53:31;;;;;;;0.20;0.20;;;19.10;79.00;;;;;;5190865;27;27655;-58
2021/07/15 03:56:16;;;;;;;2.65;0.17;;;19.10;79.10;;;;;;5190460;27;27393;-57
2021/07/15 03:59:01;;;;;;;0.57;0.10;;;19.00;78.90;;;;;;5174844;27;27329;-58
2021/07/15 04:01:56;;;;;;;0.10;0.10;;;19.00;79.00;;;;;;5190435;27;27370;-58
2021/07/15 04:04:46;;;;;;;0.68;0.10;;;19.00;79.20;;;;;;5190521;27;27381;-58
2021/07/15 04:07:31;;;;;;;2.45;0.40;;;19.00;79.20;;;;;;5190526;27;27442;-58
2021/07/15 04:10:16;;;;;;;2.17;0.20;;;19.00;79.30;;;;;;5175798;27;27408;-57
2021/07/15 04:13:01;;;;;;;2.30;0.03;;;19.00;79.70;;;;;;5187074;27;27522;-58
2021/07/15 04:15:48;;;;;;;1.67;0.20;;;19.00;79.60;;;;;;5172366;27;27464;-58
2021/07/15 04:18:34;;;;;;;0.10;0.10;;;19.00;80.00;;;;;;5191168;27;27125;-58
2021/07/15 04:21:19;;;;;;;1.55;0.13;;;19.00;80.40;;;;;;5190783;27;27415;-58
2021/07/15 04:24:04;;;;;;;0.10;0.10;;;19.00;80.20;;;;;;5190042;27;27369;-58
2021/07/15 04:26:48;;;;;;;0.10;0.10;;;19.10;80.40;;;;;;5191134;27;27401;-58
2021/07/15 04:29:33;;;;;;;2.22;0.20;;;19.00;80.40;;;;;;5190671;27;27439;-58
2021/07/15 04:32:26;;;;;;;0.15;0.05;;;19.10;80.90;;;;;;5190341;27;27486;-58
2021/07/15 04:35:12;;;;;;;1.80;0.15;;;19.00;81.50;;;;;;5190063;27;27501;-58
2021/07/15 04:37:57;;;;;;;0.77;0.08;;;19.00;81.10;;;;;;5189905;27;27478;-58
2021/07/15 04:40:42;;;;;;;0.00;0.00;;;19.00;81.00;;;;;;5175290;27;27463;-58
2021/07/15 04:43:28;;;;;;;0.00;0.00;;;19.00;81.40;;;;;;5190750;27;27462;-58
2021/07/15 04:46:13;;;;;;;0.95;0.20;;;19.00;81.30;;;;;;5174948;27;27559;-58
2021/07/15 04:48:57;;;;;;;0.17;0.17;;;19.00;81.40;;;;;;5189745;27;27487;-58
2021/07/15 04:51:42;;;;;;;1.35;0.20;;;19.00;81.60;;;;;;5190591;27;27388;-58
2021/07/15 04:54:26;;;;;;;1.67;0.20;;;19.00;81.50;;;;;;5189529;27;27537;-58
2021/07/15 04:57:11;;;;;;;4.60;0.20;;;19.00;82.10;;;;;;5189648;27;27522;-58
2021/07/15 04:59:56;;;;;;;1.75;0.10;;;19.00;82.10;;;;;;5188458;27;27401;-58
2021/07/15 05:02:41;;;;;;;0.00;0.00;;;19.00;82.10;;;;;;5189654;27;27401;-58
2021/07/15 05:05:25;;;;;;;0.90;0.30;;;19.00;82.10;;;;;;5185980;27;27989;-57
2021/07/15 05:08:10;;;;;;;0.43;0.10;;;19.00;82.20;;;;;;5189897;27;27526;-57
2021/07/15 05:10:55;;;;;;;4.35;0.10;;;19.00;82.00;;;;;;5190372;27;27400;-58
2021/07/15 05:13:39;;;;;;;1.02;0.30;;;19.00;82.40;;;;;;5188967;27;27679;-58
2021/07/15 05:16:24;;;;;;;1.08;0.10;;;19.10;82.10;;;;;;5190180;27;27409;-58
2021/07/15 05:19:09;;;;;;;1.00;0.20;;;19.10;82.10;;;;;;5190164;27;27477;-58
2021/07/15 05:21:54;;;;;;;0.25;0.08;;;19.10;82.50;;;;;;5174696;27;27456;-58
2021/07/15 05:24:38;;;;;;;2.30;0.10;;;19.10;82.20;;;;;;5188983;27;27458;-57
2021/07/15 05:27:23;;;;;;;0.50;0.20;;;19.10;82.10;;;;;;5189589;27;27357;-57
2021/07/15 05:30:08;;;;;;;2.92;0.22;;;19.10;82.30;;;;;;5189208;27;27338;-58
2021/07/15 05:32:52;;;;;;;0.40;0.30;;;19.10;82.10;;;;;;5189314;27;27449;-58
2021/07/15 05:35:39;;;;;;;1.98;0.10;;;19.10;82.10;;;;;;5189910;27;27375;-58
2021/07/15 05:38:23;;;;;;;1.08;0.22;;;19.10;82.10;;;;;;5188988;27;27969;-58
2021/07/15 05:41:08;;;;;;;1.92;0.20;;;19.10;82.00;;;;;;5188691;27;27342;-58
2021/07/15 05:43:53;;;;;;;0.25;0.17;;;19.00;82.10;;;;;;5186495;27;27470;-59
2021/07/15 05:46:37;;;;;;;2.58;0.30;;;19.10;82.10;;;;;;5185332;27;27366;-58
2021/07/15 05:49:22;;;;;;;2.55;0.20;;;19.10;82.20;;;;;;5189397;27;27374;-59
2021/07/15 05:52:11;;;;;;;3.38;0.30;;;19.00;82.40;;;;;;5185170;27;27360;-58
2021/07/15 05:54:57;;;;;;;3.65;0.45;;;19.10;82.60;;;;;;5189640;27;27408;-58
2021/07/15 05:57:41;;;;;;;2.00;0.20;;;19.10;82.80;;;;;;5188964;27;26912;-58
2021/07/15 06:00:26;;;;;;;0.52;0.20;;;19.10;82.90;;;;;;5187672;27;27425;-58
2021/07/15 06:03:11;;;;;;;0.98;0.30;;;19.20;83.10;;;;;;5189392;27;27396;-59
2021/07/15 06:05:56;;;;;;;3.00;0.20;;;19.20;82.80;;;;;;5189455;27;27458;-58
2021/07/15 06:08:40;;;;;;;8.27;6.30;;;19.30;82.90;;;;;;5188700;27;27386;-59
2021/07/15 06:11:25;;;;;;;3.08;2.20;;;19.30;82.80;;;;;;5188961;27;27974;-58
2021/07/15 06:14:09;;;;;;;1.40;1.02;;;19.30;82.80;;;;;;5189226;27;27405;-59
2021/07/15 06:16:54;;;;;;;3.70;0.85;;;19.30;83.00;;;;;;5155441;27;27460;-58
2021/07/15 06:19:39;;;;;;;0.40;0.40;;;19.40;83.00;;;;;;5173322;27;27539;-59
2021/07/15 06:22:23;;;;;;;2.58;0.63;;;19.40;83.30;;;;;;5188042;27;27977;-59
2021/07/15 06:25:09;;;;;;;1.40;0.90;;;19.40;83.20;;;;;;5184948;27;27432;-58
2021/07/15 06:27:54;;;;;;;5.70;1.33;;;19.40;83.50;;;;;;5188716;27;27440;-59
2021/07/15 06:30:39;;;;;;;2.55;0.63;;;19.40;83.50;;;;;;5188670;27;27477;-58
2021/07/15 06:33:24;;;;;;;0.45;0.40;;;19.50;83.20;;;;;;5187773;27;27497;-58
2021/07/15 06:36:08;;;;;;;2.30;0.43;;;19.50;83.30;;;;;;5187770;27;27585;-58
2021/07/15 06:38:55;;;;;;;1.15;0.30;;;19.50;83.30;;;;;;5184737;27;27417;-58
2021/07/15 06:41:40;;;;;;;1.58;0.45;;;19.50;83.50;;;;;;5188802;27;27451;-59
2021/07/15 06:44:26;;;;;;;0.75;0.28;;;19.50;83.60;;;;;;5187925;27;27472;-58
2021/07/15 06:47:10;;;;;;;2.40;1.02;;;19.50;83.70;;;;;;5188675;27;27422;-58
2021/07/15 06:49:56;;;;;;;2.63;0.32;;;19.50;83.80;;;;;;5187870;27;27405;-59
2021/07/15 06:52:41;;;;;;;0.55;0.20;;;19.60;83.90;;;;;;5188640;27;27460;-59
2021/07/15 06:55:26;;;;;;;2.13;0.80;;;19.60;84.10;;;;;;5173082;27;27414;-59
2021/07/15 06:58:10;;;;;;;2.65;0.40;;;19.60;84.20;;;;;;5187919;27;27707;-59
2021/07/15 07:00:56;;;;;;;1.10;0.25;;;19.70;84.50;;;;;;5188553;27;27406;-58
2021/07/15 07:03:41;;;;;;;2.25;0.30;;;19.70;84.60;;;;;;5169775;27;27413;-59
2021/07/15 07:06:25;;;;;;;9.32;0.88;;;19.80;85.00;;;;;;5188115;27;27459;-59
2021/07/15 07:09:10;;;;;;;1.02;0.30;;;19.90;85.10;;;;;;5186999;27;27457;-59
2021/07/15 07:11:54;;;;;;;0.30;0.28;;;19.90;85.20;;;;;;5187992;27;27451;-58
2021/07/15 07:14:38;;;;;;;0.60;0.10;;;20.00;85.90;;;;;;5187250;27;27491;-59
2021/07/15 07:17:23;;;;;;;1.88;0.30;;;20.10;86.30;;;;;;5172355;27;27510;-59
2021/07/15 07:20:09;;;;;;;3.72;0.38;;;20.20;86.50;;;;;;5188154;27;27513;-58
2021/07/15 07:22:53;;;;;;;2.83;0.30;;;20.30;86.70;;;;;;5172737;27;27503;-59
2021/07/15 07:25:38;;;;;;;2.22;0.20;;;20.30;86.70;;;;;;5187916;27;27322;-59
2021/07/15 07:28:26;;;;;;;1.52;0.28;;;20.40;86.90;;;;;;5187660;27;27971;-60
2021/07/15 07:31:11;;;;;;;0.20;0.20;;;20.40;86.40;;;;;;5187353;27;27449;-59
2021/07/15 07:33:55;;;;;;;0.52;0.30;;;20.50;86.50;;;;;;5188101;27;27398;-59
2021/07/15 07:36:40;;;;;;;2.30;0.50;;;20.50;85.80;;;;;;5187720;27;27475;-59
2021/07/15 07:39:25;;;;;;;0.30;0.30;;;20.60;86.60;;;;;;5172177;27;27441;-59
2021/07/15 07:42:09;;;;;;;1.20;0.30;;;20.60;86.60;;;;;;5187179;27;27474;-59
2021/07/15 07:44:54;;;;;;;0.57;0.20;;;20.60;86.70;;;;;;5186913;27;27562;-59
2021/07/15 07:47:38;;;;;;;0.82;0.40;;;20.60;87.20;;;;;;5187540;27;27330;-59
2021/07/15 07:50:23;;;;;;;0.30;0.17;;;20.70;88.20;;;;;;5172105;27;27327;-60
2021/07/15 07:53:07;;;;;;;0.52;0.17;;;20.80;86.60;;;;;;5187504;27;27383;-59
2021/07/15 07:55:52;;;;;;;0.43;0.20;;;20.90;86.00;;;;;;5187831;27;27386;-59
2021/07/15 07:58:37;;;;;;;0.93;0.20;;;20.90;86.00;;;;;;5185684;27;27656;-59
2021/07/15 08:01:22;;;;;;;2.38;0.45;;;20.90;86.60;;;;;;5186917;27;27331;-59
2021/07/15 08:04:06;;;;;;;2.20;0.20;;;20.90;87.10;;;;;;5187785;27;27380;-60
2021/07/15 08:06:51;;;;;;;1.83;1.25;;;20.90;87.60;;;;;;5187698;27;27334;-59
2021/07/15 08:09:42;;;;;;;0.95;0.70;;;21.00;87.90;;;;;;5187298;27;27306;-59
2021/07/15 08:12:27;;;;;;;2.72;1.10;;;20.90;87.80;;;;;;5186449;27;27932;-59
2021/07/15 08:15:13;;;;;;;0.80;0.30;;;20.90;87.40;;;;;;5186401;27;27473;-59
2021/07/15 08:17:57;;;;;;;4.13;0.25;;;20.90;87.00;;;;;;5186435;27;27486;-59
2021/07/15 08:20:42;;;;;;;1.83;0.10;;;20.80;86.30;;;;;;5186712;27;27422;-59
2021/07/15 08:23:27;;;;;;;0.15;0.15;;;20.80;86.40;;;;;;5186633;27;28074;-59
2021/07/15 08:26:12;;;;;;;0.43;0.20;;;20.80;86.60;;;;;;5190246;27;27463;-59
2021/07/15 08:28:56;;;;;;;1.55;0.40;;;20.70;86.30;;;;;;5190562;27;27454;-58
2021/07/15 08:31:42;;;;;;;1.98;0.20;;;20.60;85.50;;;;;;5190193;27;27483;-58
2021/07/15 08:34:27;;;;;;;3.83;0.50;;;20.60;85.30;;;;;;5190662;27;27464;-58
2021/07/15 08:37:12;;;;;;;0.50;0.20;;;20.60;85.40;;;;;;5190036;27;27478;-59
2021/07/15 08:39:56;;;;;;;0.40;0.20;;;20.50;85.30;;;;;;5190904;27;27408;-59
2021/07/15 08:42:41;;;;;;;2.38;0.17;;;20.40;85.10;;;;;;5186503;27;27439;-58
2021/07/15 08:45:26;;;;;;;0.25;0.10;;;20.40;85.30;;;;;;5175321;27;27870;-58
2021/07/15 08:48:12;;;;;;;1.20;0.20;;;20.40;84.70;;;;;;5189763;27;27531;-60
2021/07/15 08:50:56;;;;;;;0.43;0.20;;;20.40;85.00;;;;;;5171849;27;27552;-61
2021/07/15 08:53:42;;;;;;;2.03;0.95;;;20.40;86.20;;;;;;5174275;27;27483;-62
2021/07/15 08:56:37;;;;;;;1.52;0.20;;;20.30;86.50;;;;;;5189875;27;27413;-64
2021/07/15 08:59:22;;;;;;;0.93;0.30;;;20.30;85.70;;;;;;5189619;27;27437;-60
2021/07/15 09:02:11;;;;;;;1.73;0.50;;;20.30;85.50;;;;;;5160754;27;27478;-60
2021/07/15 09:04:56;;;;;;;0.38;0.30;;;20.30;85.70;;;;;;5175637;27;27342;-59
2021/07/15 09:07:44;;;;;;;1.55;0.30;;;20.30;85.30;;;;;;5190300;27;27406;-59
2021/07/15 09:10:29;;;;;;;0.28;0.25;;;20.30;85.50;;;;;;5190388;27;27434;-59
2021/07/15 09:13:14;;;;;;;0.30;0.30;;;20.40;86.10;;;;;;5189218;27;27462;-59
2021/07/15 09:15:59;;;;;;;2.72;0.50;;;20.40;86.60;;;;;;5190044;27;27421;-59
2021/07/15 09:19:13;;;;;;;0.70;0.30;;;20.50;86.90;;;;;;5186175;27;27367;-59
2021/07/15 09:22:12;;;;;;;1.25;0.25;;;20.60;87.40;;;;;;5183411;27;27392;-59
2021/07/15 09:24:59;;;;;;;0.63;0.30;;;20.70;87.80;;;;;;5189982;27;26858;-59
2021/07/15 09:27:48;;;;;;;0.38;0.20;;;20.80;88.50;;;;;;5189045;27;27330;-60
2021/07/15 09:30:33;;;;;;;0.30;0.30;;;21.10;89.50;;;;;;5189439;27;27368;-59
2021/07/15 09:33:17;;;;;;;1.10;0.43;;;21.30;89.00;;;;;;5190149;27;27316;-60
2021/07/15 09:36:12;;;;;;;0.40;0.22;;;21.50;87.70;;;;;;5172870;27;27391;-59
2021/07/15 09:39:02;;;;;;;0.70;0.70;;;21.70;81.80;;;;;;5189365;27;27388;-60
2021/07/15 09:42:05;;;;;;;0.20;0.20;;;22.00;84.10;;;;;;5189188;27;27877;-59
2021/07/15 09:44:51;;;;;;;0.52;0.40;;;22.20;85.80;;;;;;5189093;27;27466;-60
2021/07/15 09:47:40;;;;;;;0.75;0.10;;;22.40;87.20;;;;;;5156166;27;27414;-59
2021/07/15 09:50:26;;;;;;;1.17;0.28;;;22.60;87.70;;;;;;5188434;27;27408;-60
2021/07/15 09:53:22;;;;;;;0.20;0.20;;;22.70;88.30;;;;;;5185434;27;27342;-59
2021/07/15 09:56:16;;;;;;;0.68;0.30;;;23.00;88.00;;;;;;5189577;27;27357;-60
2021/07/15 09:59:01;;;;;;;2.28;0.40;;;23.10;88.10;;;;;;5189015;27;27337;-60
2021/07/15 10:01:52;;;;;;;0.30;0.30;;;23.30;87.90;;;;;;5189708;27;27382;-60
2021/07/15 10:04:37;;;;;;;0.20;0.20;;;23.50;88.60;;;;;;5188563;27;27938;-60
2021/07/15 10:07:25;;;;;;;0.95;0.30;;;23.60;88.30;;;;;;5189569;27;27451;-60
2021/07/15 10:10:20;;;;;;;2.33;0.22;;;23.80;88.00;;;;;;5189372;27;27338;-60
2021/07/15 10:13:17;;;;;;;0.20;0.20;;;23.90;88.20;;;;;;5189537;27;27356;-59
2021/07/15 10:16:04;;;;;;;1.17;0.40;;;23.90;88.00;;;;;;5189014;27;27359;-61
2021/07/15 10:18:50;;;;;;;0.10;0.10;;;23.90;87.90;;;;;;5170543;27;27395;-63
2021/07/15 10:21:35;;;;;;;0.30;0.30;;;23.80;86.50;;;;;;5189055;27;27405;-62
2021/07/15 10:24:21;;;;;;;0.65;0.20;;;23.70;86.10;;;;;;5188217;27;27429;-61
2021/07/15 10:27:10;;;;;;;0.20;0.10;;;23.60;86.80;;;;;;5188390;27;27467;-60
2021/07/15 10:29:57;;;;;;;0.55;0.50;;;23.50;87.60;;;;;;5187807;27;27366;-60
2021/07/15 10:32:42;;;;;;;0.38;0.17;;;23.40;87.30;;;;;;5188197;27;27010;-60
2021/07/15 10:35:27;;;;;;;1.38;0.20;;;23.30;87.90;;;;;;5158862;27;27389;-60
2021/07/15 10:38:12;;;;;;;0.25;0.10;;;23.30;88.50;;;;;;5173226;27;27431;-62
2021/07/15 10:40:57;;;;;;;0.40;0.28;;;23.20;87.60;;;;;;5188661;27;27358;-60
2021/07/15 10:43:42;;;;;;;0.28;0.20;;;23.20;87.60;;;;;;5188194;27;27322;-60
2021/07/15 10:46:28;;;;;;;0.30;0.20;;;23.20;87.30;;;;;;5188392;27;27370;-60
2021/07/15 10:49:13;;;;;;;0.80;0.30;;;23.30;86.90;;;;;;5188668;27;27393;-60
2021/07/15 10:52:00;;;;;;;2.53;0.28;;;23.30;86.60;;;;;;5187771;27;27407;-61
2021/07/15 10:54:45;;;;;;;0.25;0.20;;;23.40;88.40;;;;;;5155988;27;27562;-62
2021/07/15 10:57:30;;;;;;;0.47;0.20;;;23.50;87.90;;;;;;5188339;27;27470;-61
2021/07/15 11:00:28;;;;;;;0.55;0.32;;;23.50;87.60;;;;;;5188576;27;27466;-60
2021/07/15 11:03:15;;;;;;;0.50;0.20;;;23.70;87.80;;;;;;5188565;27;27409;-61
2021/07/15 11:06:00;;;;;;;0.20;0.10;;;23.80;86.70;;;;;;5187493;27;27408;-61
2021/07/15 11:08:44;;;;;;;0.38;0.20;;;24.00;86.40;;;;;;5188303;27;27383;-61
2021/07/15 11:11:43;;;;;;;1.48;0.68;;;24.20;88.10;;;;;;5187185;27;27486;-61
2021/07/15 11:14:45;;;;;;;0.90;0.28;;;24.50;88.20;;;;;;5188365;27;27373;-60
2021/07/15 11:17:31;;;;;;;1.23;0.20;;;24.60;87.70;;;;;;5187762;27;26955;-61
2021/07/15 11:20:31;;;;;;;0.30;0.30;;;24.60;87.90;;;;;;5188140;27;27424;-61
2021/07/15 11:23:16;;;;;;;0.25;0.25;;;24.70;87.60;;;;;;5188428;27;27472;-61
2021/07/15 11:26:09;;;;;;;0.77;0.30;;;24.70;86.30;;;;;;5188281;27;27477;-60
2021/07/15 11:28:54;;;;;;;1.00;0.80;;;24.70;86.10;;;;;;5173301;27;27457;-61
2021/07/15 11:31:47;;;;;;;0.25;0.20;;;24.70;86.90;;;;;;5187898;27;27516;-61
2021/07/15 11:34:35;;;;;;;1.75;0.30;;;24.60;87.50;;;;;;5187798;27;27306;-60
2021/07/15 11:37:33;;;;;;;2.38;0.28;;;24.60;87.10;;;;;;5187401;27;27468;-61
2021/07/15 11:40:45;;;;;;;0.63;0.30;;;24.60;87.10;;;;;;5188123;27;27446;-61
2021/07/15 11:43:34;;;;;;;0.30;0.30;;;24.50;87.00;;;;;;5183632;27;27416;-61
2021/07/15 11:46:20;;;;;;;1.08;0.22;;;24.60;87.70;;;;;;5186949;27;27423;-62
2021/07/15 11:49:23;;;;;;;0.35;0.30;;;24.60;86.80;;;;;;5187557;27;27338;-62
2021/07/15 11:52:10;;;;;;;0.30;0.30;;;24.60;86.40;;;;;;5187704;27;27426;-61
2021/07/15 11:54:55;;;;;;;0.40;0.30;;;24.70;86.40;;;;;;5172529;27;27384;-61
2021/07/15 11:57:40;;;;;;;0.50;0.40;;;24.60;86.40;;;;;;5187626;27;27784;-63
2021/07/15 12:00:24;;;;;;;0.50;0.50;;;24.70;86.90;;;;;;5190129;27;27403;-61
2021/07/15 12:03:09;;;;;;;0.40;0.40;;;24.70;86.00;;;;;;5176057;27;26958;-61
2021/07/15 12:05:54;;;;;;;1.15;0.40;;;24.80;86.60;;;;;;5175560;27;27408;-60
2021/07/15 12:08:39;;;;;;;0.40;0.40;;;25.00;86.50;;;;;;5157907;27;27375;-62
2021/07/15 12:11:24;;;;;;;1.20;0.50;;;25.10;86.90;;;;;;5191638;27;27596;-61
2021/07/15 12:14:09;;;;;;;0.30;0.30;;;25.20;87.80;;;;;;5175769;27;27498;-62
2021/07/15 12:16:54;;;;;;;0.30;0.30;;;25.30;87.10;;;;;;5191167;27;27465;-61
2021/07/15 12:19:38;;;;;;;0.30;0.30;;;25.40;86.70;;;;;;5191309;27;27409;-61
2021/07/15 12:22:23;;;;;;;0.47;0.40;;;25.40;86.10;;;;;;5187042;27;27405;-61
2021/07/15 12:25:09;;;;;;;0.52;0.40;;;25.40;87.10;;;;;;5175413;27;27409;-61
2021/07/15 12:27:56;;;;;;;0.52;0.52;;;25.40;85.20;;;;;;5191152;27;27334;-61
2021/07/15 12:30:54;;;;;;;1.77;0.70;;;25.30;85.30;;;;;;5190225;27;27880;-61
2021/07/15 12:33:45;;;;;;;0.45;0.45;;;25.20;85.70;;;;;;5176063;27;27598;-62
2021/07/15 12:36:31;;;;;;;0.60;0.60;;;25.10;85.20;;;;;;5190831;27;27362;-61
2021/07/15 12:39:17;;;;;;;0.50;0.40;;;24.90;84.10;;;;;;5172253;27;27384;-61
2021/07/15 12:42:02;;;;;;;0.50;0.50;;;24.80;83.60;;;;;;5190973;27;27320;-61
2021/07/15 12:44:47;;;;;;;0.52;0.50;;;24.70;84.00;;;;;;5186373;27;27380;-61
2021/07/15 12:47:32;;;;;;;0.75;0.50;;;24.60;84.30;;;;;;5175105;27;27376;-61
2021/07/15 12:50:23;;;;;;;0.30;0.30;;;24.50;83.80;;;;;;5190563;27;27428;-62
2021/07/15 12:53:13;;;;;;;0.52;0.50;;;24.40;85.30;;;;;;5190518;27;27404;-61
2021/07/15 12:55:58;;;;;;;0.75;0.50;;;24.30;86.00;;;;;;5171485;27;27560;-61
2021/07/15 12:58:43;;;;;;;0.95;0.40;;;24.20;85.20;;;;;;5189101;27;27354;-61
2021/07/15 13:01:28;;;;;;;1.90;0.57;;;24.10;84.00;;;;;;5189393;27;27331;-61
2021/07/15 13:04:18;;;;;;;0.40;0.40;;;24.10;82.70;;;;;;5190257;27;27395;-61
2021/07/15 13:07:10;;;;;;;0.40;0.40;;;24.00;82.70;;;;;;5190190;27;27493;-62
2021/07/15 13:16:07;;;;;;;0.60;0.60;;;23.80;81.80;;;;;;5189616;27;27501;-61
2021/07/15 13:18:51;;;;;;;2.97;0.70;;;23.80;81.60;;;;;;5189292;27;27441;-61
2021/07/15 13:21:36;;;;;;;3.08;0.75;;;23.70;80.80;;;;;;5174801;27;27405;-61
2021/07/15 13:24:28;;;;;;;1.50;0.90;;;23.70;82.00;;;;;;5190005;27;27418;-61
2021/07/15 13:27:21;;;;;;;1.23;0.85;;;23.60;81.90;;;;;;5190000;27;27391;-61
2021/07/15 13:30:06;;;;;;;0.60;0.60;;;23.60;81.00;;;;;;5189915;27;27337;-61
2021/07/15 13:32:51;;;;;;;4.13;0.63;;;23.60;81.30;;;;;;5189548;27;27395;-61
2021/07/15 13:35:36;;;;;;;1.00;0.90;;;23.60;81.20;;;;;;5189052;27;27391;-61
2021/07/15 13:38:21;;;;;;;3.20;0.93;;;23.60;82.00;;;;;;5189395;27;27349;-62
2021/07/15 13:41:20;;;;;;;1.27;0.77;;;23.60;82.00;;;;;;5190001;27;27400;-60
2021/07/15 13:44:07;;;;;;;0.60;0.50;;;23.60;81.40;;;;;;5189336;27;27450;-61
2021/07/15 13:47:07;;;;;;;1.35;1.08;;;23.70;81.10;;;;;;5189144;27;27471;-61
2021/07/15 13:49:59;;;;;;;0.75;0.75;;;23.70;82.00;;;;;;5175305;27;27409;-61
2021/07/15 13:52:44;;;;;;;0.93;0.65;;;23.70;80.80;;;;;;5188728;27;27403;-61
2021/07/15 13:55:29;;;;;;;1.48;0.77;;;23.70;81.40;;;;;;5189364;27;27414;-61
2021/07/15 13:58:15;;;;;;;0.47;0.47;;;23.70;81.80;;;;;;5188712;27;27425;-61
2021/07/15 14:01:01;;;;;;;2.25;0.77;;;23.70;81.50;;;;;;5189457;27;27858;-61
2021/07/15 14:03:48;;;;;;;0.82;0.82;;;23.70;81.90;;;;;;5189292;27;27403;-61
2021/07/15 14:06:35;;;;;;;1.67;1.00;;;23.70;81.10;;;;;;5188612;27;27345;-61
2021/07/15 14:09:20;;;;;;;1.35;0.80;;;23.70;81.40;;;;;;5188196;27;27445;-61
2021/07/15 14:12:06;;;;;;;1.13;1.02;;;23.70;82.30;;;;;;5188472;27;27434;-61
2021/07/15 14:14:52;;;;;;;2.72;1.00;;;23.80;82.60;;;;;;5189113;27;27497;-61
2021/07/15 14:17:37;;;;;;;1.48;0.90;;;23.80;82.80;;;;;;5170220;27;27429;-62
2021/07/15 14:20:22;;;;;;;1.65;1.23;;;24.00;84.00;;;;;;5189316;27;27590;-61
2021/07/15 14:23:08;;;;;;;0.90;0.90;;;24.10;85.10;;;;;;5187774;27;27595;-61
2021/07/15 14:25:55;;;;;;;2.55;1.20;;;24.30;85.20;;;;;;5188936;27;27501;-62
2021/07/15 14:28:39;;;;;;;1.15;1.00;;;24.40;86.70;;;;;;5189030;27;27354;-61
2021/07/15 14:31:24;;;;;;;2.40;0.98;;;24.60;88.80;;;;;;5184766;27;27356;-62
2021/07/15 14:34:08;;;;;;;0.80;0.77;;;24.70;89.00;;;;;;5188041;27;27410;-61
2021/07/15 14:36:53;;;;;;;1.75;1.10;;;24.80;87.10;;;;;;5185024;27;27521;-61